Time;durP1;ratioP1;P1;durP2;ratioP2;P2;SDS_P1;SDS_P2;PMS_P1;PMS_P2;Temp;Humidity;BMP_temperature;BMP_pressure;BME280_temperature;BME280_humidity;BME280_pressure;Samples;Min_cycle;Max_cycle;Signal;HPM_P1;HPM_P2
2023/07/19 00:01:53;;;;;;;;;;;;;;;28.74;41.27;100008.09;5426564;32;35319;-76
2023/07/19 00:04:55;;;;;;;;;;;;;;;28.27;42.38;100018.19;5443983;32;34947;-73
2023/07/19 00:07:57;;;;;;;;;;;;;;;28.70;41.47;100020.28;5443062;32;35565;-74
2023/07/19 00:10:59;;;;;;;;;;;;;;;28.98;40.76;100015.97;5440821;32;34327;-76
2023/07/19 00:14:05;;;;;;;;;;;;;;;28.49;41.73;100018.34;5431982;32;34224;-75
2023/07/19 00:17:08;;;;;;;;;;;;;;;27.68;43.39;100011.69;5429131;32;35718;-77
2023/07/19 00:20:10;;;;;;;;;;;;;;;27.96;42.67;99996.69;5445753;32;34135;-73
2023/07/19 00:23:12;;;;;;;;;;;;;;;28.57;41.37;99980.38;5442650;32;35173;-74
2023/07/19 00:26:14;;;;;;;;;;;;;;;28.47;41.27;99980.69;5443023;32;34549;-73
2023/07/19 00:29:16;;;;;;;;;;;;;;;28.24;41.84;99969.06;5443554;32;35214;-76
2023/07/19 00:32:18;;;;;;;;;;;;;;;28.79;40.51;99957.00;5439961;32;35391;-76
2023/07/19 00:35:20;;;;;;;;;;;;;;;28.28;41.46;99954.16;5417173;32;36553;-74
2023/07/19 00:38:22;;;;;;;;;;;;;;;28.13;41.90;99956.00;5442276;32;34235;-74
2023/07/19 00:41:24;;;;;;;;;;;;;;;28.28;41.28;99951.47;5443170;32;35139;-77
2023/07/19 00:44:26;;;;;;;;;;;;;;;27.71;42.39;99957.41;5427518;32;35219;-74
2023/07/19 00:47:28;;;;;;;;;;;;;;;27.10;43.38;99951.00;5428275;32;34918;-76
2023/07/19 00:50:30;;;;;;;;;;;;;;;27.71;42.07;99946.59;5429202;32;34105;-76
2023/07/19 00:53:32;;;;;;;;;;;;;;;26.99;43.15;99938.75;5427695;32;36597;-73
2023/07/19 00:56:34;;;;;;;;;;;;;;;27.63;42.02;99943.91;5431560;32;34822;-73
2023/07/19 00:59:36;;;;;;;;;;;;;;;27.38;42.36;99952.22;5428225;32;35322;-76
2023/07/19 01:02:38;;;;;;;;;;;;;;;27.51;41.90;99941.66;5446295;32;34760;-73
2023/07/19 01:05:40;;;;;;;;;;;;;;;27.45;42.11;99928.03;5427402;32;35830;-73
2023/07/19 01:08:41;;;;;;;;;;;;;;;27.28;42.68;99924.59;5430433;32;34925;-78
2023/07/19 01:11:43;;;;;;;;;;;;;;;27.15;42.99;99935.16;5430969;32;35406;-72
2023/07/19 01:14:45;;;;;;;;;;;;;;;26.94;43.50;99933.88;5440300;32;34818;-76
2023/07/19 01:17:47;;;;;;;;;;;;;;;26.75;44.13;99928.91;5430247;32;34810;-76
2023/07/19 01:20:49;;;;;;;;;;;;;;;26.99;43.62;99926.13;5437900;32;34864;-74
2023/07/19 01:23:51;;;;;;;;;;;;;;;27.58;42.29;99935.53;5445915;32;35346;-76
2023/07/19 01:26:55;;;;;;;;;;;;;;;27.69;42.05;99937.81;5425839;32;34710;-74
2023/07/19 01:30:07;;;;;;;;;;;;;;;27.32;42.82;99938.59;5440360;32;35221;-76
2023/07/19 01:33:09;;;;;;;;;;;;;;;27.10;43.29;99922.19;5442790;32;35362;-77
2023/07/19 01:36:29;;;;;;;;;;;;;;;27.62;42.13;99926.03;5438729;32;35819;-73
2023/07/19 01:39:31;;;;;;;;;;;;;;;27.30;43.01;99937.91;5442886;32;35202;-77
2023/07/19 01:42:33;;;;;;;;;;;;;;;26.87;44.13;99938.31;5440111;32;34846;-73
2023/07/19 01:45:35;;;;;;;;;;;;;;;27.51;42.79;99930.84;5428580;32;34389;-76
2023/07/19 01:48:37;;;;;;;;;;;;;;;27.32;43.26;99941.28;5428007;32;34796;-73
2023/07/19 01:51:39;;;;;;;;;;;;;;;27.89;42.96;99935.47;5440331;32;34992;-76
2023/07/19 01:54:40;;;;;;;;;;;;;;;26.66;45.99;99938.91;5442860;32;34606;-73
2023/07/19 01:57:42;;;;;;;;;;;;;;;26.74;46.08;99927.25;5425797;32;34787;-73
2023/07/19 02:00:44;;;;;;;;;;;;;;;26.97;45.43;99930.81;5443988;32;35531;-74
2023/07/19 02:03:46;;;;;;;;;;;;;;;27.06;45.40;99928.12;5438772;32;35375;-73
2023/07/19 02:06:48;;;;;;;;;;;;;;;27.16;45.29;99921.47;5442744;32;35231;-75
2023/07/19 02:09:50;;;;;;;;;;;;;;;26.71;46.25;99924.87;5427958;32;34271;-77
2023/07/19 02:12:52;;;;;;;;;;;;;;;26.59;46.87;99932.50;5440478;32;35345;-76
2023/07/19 02:15:54;;;;;;;;;;;;;;;26.44;47.07;99936.94;5442868;32;35364;-76
2023/07/19 02:18:56;;;;;;;;;;;;;;;25.91;48.54;99947.28;5429659;32;35097;-76
2023/07/19 02:21:58;;;;;;;;;;;;;;;25.96;48.47;99944.09;5432535;32;33223;-73
2023/07/19 02:25:00;;;;;;;;;;;;;;;26.01;48.21;99940.87;5439894;32;34980;-75
2023/07/19 02:28:02;;;;;;;;;;;;;;;25.53;49.38;99947.94;5444251;32;34938;-76
2023/07/19 02:31:04;;;;;;;;;;;;;;;26.62;46.92;99956.44;5433471;32;34318;-73
2023/07/19 02:34:09;;;;;;;;;;;;;;;26.96;45.90;99961.50;5427972;32;35002;-75
2023/07/19 02:37:11;;;;;;;;;;;;;;;26.40;47.30;99963.37;5429104;32;36622;-77
2023/07/19 02:40:13;;;;;;;;;;;;;;;25.82;49.54;99968.97;5427941;32;35311;-77
2023/07/19 02:43:15;;;;;;;;;;;;;;;25.61;50.29;99969.47;5445569;32;34731;-77
2023/07/19 02:46:17;;;;;;;;;;;;;;;25.77;50.28;99961.44;5439370;32;35386;-73
2023/07/19 02:49:19;;;;;;;;;;;;;;;25.71;50.47;99962.06;5443009;32;34253;-73
2023/07/19 02:52:21;;;;;;;;;;;;;;;25.48;51.27;99958.34;5444632;32;35116;-76
2023/07/19 02:55:23;;;;;;;;;;;;;;;25.64;50.97;99953.84;5440530;32;34340;-73
2023/07/19 02:58:27;;;;;;;;;;;;;;;25.59;51.12;99947.25;5447951;32;34869;-75
2023/07/19 03:01:30;;;;;;;;;;;;;;;25.60;50.98;99947.09;5439123;32;35607;-77
2023/07/19 03:04:32;;;;;;;;;;;;;;;25.54;50.77;99945.06;5433059;32;34863;-73
2023/07/19 03:07:34;;;;;;;;;;;;;;;26.17;49.43;99948.94;5441503;32;34798;-77
2023/07/19 03:10:36;;;;;;;;;;;;;;;26.75;47.69;99953.19;5426523;32;35197;-76
2023/07/19 03:13:38;;;;;;;;;;;;;;;26.55;48.06;99949.22;5442943;32;35491;-73
2023/07/19 03:16:40;;;;;;;;;;;;;;;25.83;49.24;99944.62;5439380;32;34415;-73
2023/07/19 03:19:45;;;;;;;;;;;;;;;25.61;50.29;99940.69;5431905;32;34997;-73
2023/07/19 03:22:47;;;;;;;;;;;;;;;25.99;48.82;99942.91;5442105;32;34452;-73
2023/07/19 03:25:49;;;;;;;;;;;;;;;26.30;49.08;99943.88;5442764;32;34258;-77
2023/07/19 03:28:51;;;;;;;;;;;;;;;26.70;48.22;99944.78;5427821;32;34885;-76
2023/07/19 03:31:53;;;;;;;;;;;;;;;27.07;46.93;99954.09;5440269;32;34222;-72
2023/07/19 03:34:55;;;;;;;;;;;;;;;26.53;48.07;99957.47;5429726;32;34909;-76
2023/07/19 03:37:57;;;;;;;;;;;;;;;25.79;50.50;99958.56;5442019;32;34134;-76
2023/07/19 03:41:06;;;;;;;;;;;;;;;25.82;50.54;99950.13;5446371;32;34728;-75
2023/07/19 03:44:08;;;;;;;;;;;;;;;25.51;51.76;99961.56;5427873;32;35406;-76
2023/07/19 03:47:10;;;;;;;;;;;;;;;25.71;51.57;99962.06;5444885;32;35544;-72
2023/07/19 03:50:12;;;;;;;;;;;;;;;25.67;51.57;99958.03;5430556;32;34628;-72
2023/07/19 03:53:14;;;;;;;;;;;;;;;25.43;52.29;99948.06;5433201;32;35279;-76
2023/07/19 03:56:16;;;;;;;;;;;;;;;25.45;52.36;99950.63;5445230;32;34357;-76
2023/07/19 03:59:18;;;;;;;;;;;;;;;26.01;50.92;99948.94;5431608;32;34909;-76
2023/07/19 04:02:22;;;;;;;;;;;;;;;25.48;52.49;99961.88;5434428;32;34424;-73
2023/07/19 04:05:24;;;;;;;;;;;;;;;25.42;52.63;99965.22;5439943;32;34380;-73
2023/07/19 04:08:26;;;;;;;;;;;;;;;25.88;51.28;99969.16;5443659;32;34478;-72
2023/07/19 04:11:28;;;;;;;;;;;;;;;26.21;50.15;99977.19;5439342;32;34434;-71
2023/07/19 04:14:30;;;;;;;;;;;;;;;25.04;53.12;99977.38;5428535;32;35047;-73
2023/07/19 04:17:32;;;;;;;;;;;;;;;25.58;51.39;99977.87;5433242;32;34787;-76
2023/07/19 04:20:36;;;;;;;;;;;;;;;25.26;52.21;99974.12;5429000;32;34936;-76
2023/07/19 04:23:38;;;;;;;;;;;;;;;25.02;52.50;99977.53;5445329;32;35097;-77
2023/07/19 04:26:40;;;;;;;;;;;;;;;25.36;51.87;99980.19;5429058;32;35613;-73
2023/07/19 04:29:42;;;;;;;;;;;;;;;25.82;50.77;99985.13;5445113;32;35047;-74
2023/07/19 04:32:44;;;;;;;;;;;;;;;26.09;50.29;99986.66;5440210;32;34634;-77
2023/07/19 04:35:47;;;;;;;;;;;;;;;25.69;51.60;99982.91;5413827;32;35376;-76
2023/07/19 04:38:49;;;;;;;;;;;;;;;25.45;52.68;99981.06;5446584;32;35446;-77
2023/07/19 04:41:51;;;;;;;;;;;;;;;26.00;51.46;99983.13;5425040;32;35500;-73
2023/07/19 04:44:53;;;;;;;;;;;;;;;25.64;52.44;99980.75;5430339;32;35313;-75
2023/07/19 04:47:55;;;;;;;;;;;;;;;25.87;52.10;99967.47;5441733;32;34305;-75
2023/07/19 04:50:58;;;;;;;;;;;;;;;26.06;51.67;99978.91;5416372;32;34638;-74
2023/07/19 04:54:00;;;;;;;;;;;;;;;26.32;50.67;99978.72;5425918;32;35042;-77
2023/07/19 04:57:02;;;;;;;;;;;;;;;26.15;51.25;99981.44;5430615;32;35120;-73
2023/07/19 05:00:11;;;;;;;;;;;;;;;26.57;50.46;99987.59;5444860;32;34588;-73
2023/07/19 05:03:13;;;;;;;;;;;;;;;27.03;49.07;99976.97;5441858;32;34935;-76
2023/07/19 05:06:15;;;;;;;;;;;;;;;27.07;48.78;99976.50;5419276;32;35459;-73
2023/07/19 05:09:17;;;;;;;;;;;;;;;27.15;48.74;99978.31;5427433;32;34355;-73
2023/07/19 05:12:19;;;;;;;;;;;;;;;26.78;49.40;99968.16;5442166;32;36678;-73
2023/07/19 05:15:21;;;;;;;;;;;;;;;26.86;49.32;99985.16;5437957;32;35343;-76
2023/07/19 05:18:23;;;;;;;;;;;;;;;26.78;49.76;99978.94;5423400;32;32900;-77
2023/07/19 05:21:25;;;;;;;;;;;;;;;27.11;48.97;99987.75;5444863;32;35495;-74
2023/07/19 05:24:27;;;;;;;;;;;;;;;26.69;49.75;99975.44;5443870;32;35662;-76
2023/07/19 05:27:29;;;;;;;;;;;;;;;28.22;46.52;99981.94;5430570;32;34522;-74
2023/07/19 05:30:31;;;;;;;;;;;;;;;28.37;46.09;99984.66;5439355;32;34785;-74
2023/07/19 05:33:33;;;;;;;;;;;;;;;28.77;45.03;99975.25;5428186;32;33799;-78
2023/07/19 05:36:37;;;;;;;;;;;;;;;29.37;43.72;99966.88;5424337;32;34938;-75
2023/07/19 05:39:39;;;;;;;;;;;;;;;29.33;43.79;99968.28;5427425;32;35988;-74
2023/07/19 05:42:41;;;;;;;;;;;;;;;29.71;42.98;99973.50;5446784;32;34709;-77
2023/07/19 05:45:44;;;;;;;;;;;;;;;29.01;43.90;99980.41;5417473;32;35277;-74
2023/07/19 05:48:46;;;;;;;;;;;;;;;29.46;42.90;99988.41;5412482;32;35074;-80
2023/07/19 05:51:48;;;;;;;;;;;;;;;28.52;44.67;99993.63;5423695;32;35386;-77
2023/07/19 05:54:50;;;;;;;;;;;;;;;29.44;42.66;99998.59;5402496;32;35252;-67
2023/07/19 05:57:52;;;;;;;;;;;;;;;29.19;43.46;99995.38;5381964;32;34894;-78
2023/07/19 06:00:54;;;;;;;;;;;;;;;28.77;43.64;99986.06;5392375;32;34386;-71
2023/07/19 06:03:56;;;;;;;;;;;;;;;28.66;44.27;99998.22;5394276;32;34635;-69
2023/07/19 06:06:58;;;;;;;;;;;;;;;28.64;43.25;99999.41;5409832;32;34239;-70
2023/07/19 06:10:00;;;;;;;;;;;;;;;28.60;43.74;100002.50;5410606;32;35437;-82
2023/07/19 06:13:06;;;;;;;;;;;;;;;29.63;41.34;99993.41;5428556;32;34550;-70
2023/07/19 06:16:08;;;;;;;;;;;;;;;29.17;41.40;99992.00;5426084;32;34101;-77
2023/07/19 06:19:10;;;;;;;;;;;;;;;29.10;41.97;100002.75;5418721;32;34309;-72
2023/07/19 06:22:12;;;;;;;;;;;;;;;29.38;40.94;99995.63;5431981;32;34275;-79
2023/07/19 06:25:15;;;;;;;;;;;;;;;30.03;39.81;99992.94;5419128;32;33788;-91
2023/07/19 06:28:17;;;;;;;;;;;;;;;29.92;39.83;99992.44;5431365;32;34287;-70
2023/07/19 06:31:19;;;;;;;;;;;;;;;30.09;39.43;99987.56;5433994;32;35697;-77
2023/07/19 06:34:21;;;;;;;;;;;;;;;31.14;37.60;99985.75;5434822;32;35592;-80
2023/07/19 06:37:23;;;;;;;;;;;;;;;29.87;39.95;99988.63;5435791;32;34920;-74
2023/07/19 06:40:28;;;;;;;;;;;;;;;30.58;38.91;99986.69;5422301;32;36539;-69
2023/07/19 06:43:30;;;;;;;;;;;;;;;30.13;40.00;99991.59;5434800;32;34164;-76
2023/07/19 06:46:32;;;;;;;;;;;;;;;30.42;38.92;99989.72;5434124;32;34187;-76
2023/07/19 06:49:38;;;;;;;;;;;;;;;31.26;37.23;99987.69;5430023;32;34908;-72
2023/07/19 06:52:40;;;;;;;;;;;;;;;30.77;38.28;99987.88;5431610;32;35423;-70
2023/07/19 06:55:42;;;;;;;;;;;;;;;29.81;40.29;99984.81;5434701;32;34171;-72
2023/07/19 06:58:44;;;;;;;;;;;;;;;29.44;41.35;99972.38;5427058;32;34332;-78
2023/07/19 07:01:46;;;;;;;;;;;;;;;29.53;41.41;99971.22;5408837;32;34265;-76
2023/07/19 07:04:49;;;;;;;;;;;;;;;29.40;41.79;99971.91;5429153;32;35918;-74
2023/07/19 07:07:52;;;;;;;;;;;;;;;29.75;41.23;99974.75;5429683;32;33949;-73
2023/07/19 07:10:54;;;;;;;;;;;;;;;29.86;40.81;99971.53;5429399;32;34509;-71
2023/07/19 07:13:56;;;;;;;;;;;;;;;29.62;41.55;99961.09;5436161;32;36319;-79
2023/07/19 07:16:59;;;;;;;;;;;;;;;29.28;42.26;99954.47;5434333;32;34337;-74
2023/07/19 07:20:01;;;;;;;;;;;;;;;29.67;41.46;99961.34;5422544;32;36401;-75
2023/07/19 07:23:03;;;;;;;;;;;;;;;30.29;40.46;99948.97;5441663;32;33250;-74
2023/07/19 07:26:05;;;;;;;;;;;;;;;31.02;38.57;99952.91;5437527;32;34490;-76
2023/07/19 07:29:07;;;;;;;;;;;;;;;31.60;37.45;99956.00;5440722;32;35633;-77
2023/07/19 07:32:10;;;;;;;;;;;;;;;30.22;40.36;99954.34;5415129;32;34995;-73
2023/07/19 07:35:12;;;;;;;;;;;;;;;31.03;38.96;99957.31;5435659;32;35035;-76
2023/07/19 07:38:14;;;;;;;;;;;;;;;30.69;39.54;99961.75;5422320;32;35208;-76
2023/07/19 07:41:17;;;;;;;;;;;;;;;30.25;40.69;99963.94;5434953;32;33379;-68
2023/07/19 07:44:19;;;;;;;;;;;;;;;30.48;40.30;99970.78;5433647;32;36176;-68
2023/07/19 07:47:23;;;;;;;;;;;;;;;30.45;40.31;99965.75;5428782;32;34501;-77
2023/07/19 07:50:27;;;;;;;;;;;;;;;31.40;38.35;99955.16;5427937;32;35304;-68
2023/07/19 07:53:30;;;;;;;;;;;;;;;30.90;39.66;99954.53;5430314;32;34381;-79
2023/07/19 07:56:32;;;;;;;;;;;;;;;31.18;38.86;99954.44;5429526;32;34385;-84
2023/07/19 07:59:34;;;;;;;;;;;;;;;31.14;39.10;99961.31;5394300;32;36975;-70
2023/07/19 08:02:36;;;;;;;;;;;;;;;30.86;39.18;99962.25;5431816;32;35894;-69
2023/07/19 08:05:38;;;;;;;;;;;;;;;32.03;36.81;99971.97;5433246;32;34256;-71
2023/07/19 08:08:40;;;;;;;;;;;;;;;32.41;36.27;99972.16;5424259;32;35097;-82
2023/07/19 08:11:42;;;;;;;;;;;;;;;32.20;36.49;99967.78;5403054;32;34397;-71
2023/07/19 08:14:44;;;;;;;;;;;;;;;31.16;38.49;99965.50;5434874;32;34718;-72
2023/07/19 08:17:46;;;;;;;;;;;;;;;31.49;38.23;99951.19;5438852;32;34379;-71
2023/07/19 08:20:50;;;;;;;;;;;;;;;30.79;39.71;99941.56;5407625;32;34188;-78
2023/07/19 08:23:55;;;;;;;;;;;;;;;32.72;35.70;99933.37;5427834;32;35411;-75
2023/07/19 08:26:57;;;;;;;;;;;;;;;31.99;37.27;99935.38;5433829;32;34257;-73
2023/07/19 08:30:04;;;;;;;;;;;;;;;31.38;38.63;99938.25;5425281;32;35817;-70
2023/07/19 08:33:08;;;;;;;;;;;;;;;32.64;36.46;99925.44;5436453;32;35666;-75
2023/07/19 08:36:10;;;;;;;;;;;;;;;32.61;36.37;99936.75;5414893;32;35257;-73
2023/07/19 08:39:12;;;;;;;;;;;;;;;30.82;39.90;99938.44;5435218;32;34299;-72
2023/07/19 08:42:15;;;;;;;;;;;;;;;30.52;40.50;99935.13;5389180;32;34634;-70
2023/07/19 08:45:17;;;;;;;;;;;;;;;30.32;41.43;99937.72;5387030;32;35279;-73
2023/07/19 08:48:19;;;;;;;;;;;;;;;31.33;39.55;99943.44;5376006;32;34270;-74
2023/07/19 08:51:21;;;;;;;;;;;;;;;32.82;36.28;99946.50;5370108;32;34499;-78
2023/07/19 08:54:24;;;;;;;;;;;;;;;32.53;37.22;99947.87;5385695;32;34603;-85
2023/07/19 08:57:26;;;;;;;;;;;;;;;34.37;33.58;99949.69;5389885;32;35170;-72
2023/07/19 09:00:30;;;;;;;;;;;;;;;32.72;36.69;99946.97;5365011;32;34445;-73
2023/07/19 09:03:32;;;;;;;;;;;;;;;32.85;36.46;99943.38;5385576;32;34257;-75
2023/07/19 09:06:34;;;;;;;;;;;;;;;33.16;35.86;99948.03;5365719;32;35802;-70
2023/07/19 09:09:38;;;;;;;;;;;;;;;32.52;37.12;99951.62;5385767;32;34748;-74
2023/07/19 09:12:42;;;;;;;;;;;;;;;31.83;39.04;99962.97;5390300;32;32141;-70
2023/07/19 09:15:46;;;;;;;;;;;;;;;32.61;37.35;99956.63;5384732;32;35721;-76
2023/07/19 09:18:49;;;;;;;;;;;;;;;33.33;36.22;99956.56;5386275;32;33009;-72
2023/07/19 09:21:51;;;;;;;;;;;;;;;32.45;37.61;99950.81;5382196;32;34209;-70
2023/07/19 09:24:54;;;;;;;;;;;;;;;32.81;37.27;99955.72;5391774;32;33272;-79
2023/07/19 09:27:56;;;;;;;;;;;;;;;32.24;37.94;99960.03;5384660;32;35191;-76
2023/07/19 09:31:04;;;;;;;;;;;;;;;32.12;38.41;99961.69;5369240;32;34615;-76
2023/07/19 09:34:25;;;;;;;;;;;;;;;31.47;39.85;99964.16;5385774;32;34763;-70
2023/07/19 09:37:27;;;;;;;;;;;;;;;31.90;38.90;99959.22;5389222;32;34171;-80
2023/07/19 09:40:29;;;;;;;;;;;;;;;33.18;36.56;99934.25;5377621;32;34258;-71
2023/07/19 09:43:31;;;;;;;;;;;;;;;32.24;39.05;99933.66;5368403;32;34500;-72
2023/07/19 09:46:33;;;;;;;;;;;;;;;33.06;38.33;99931.38;5380552;32;34131;-82
2023/07/19 09:49:36;;;;;;;;;;;;;;;32.80;37.28;99930.41;5385269;32;34107;-79
2023/07/19 09:52:38;;;;;;;;;;;;;;;33.03;36.71;99934.50;5384042;32;35139;-78
2023/07/19 09:55:40;;;;;;;;;;;;;;;31.89;35.15;99943.13;5390628;32;33498;-74
2023/07/19 09:58:42;;;;;;;;;;;;;;;31.84;34.86;99945.63;5401594;32;34906;-74
2023/07/19 10:01:44;;;;;;;;;;;;;;;32.12;35.06;99954.38;5409196;32;34443;-70
2023/07/19 10:04:46;;;;;;;;;;;;;;;31.93;36.43;99949.78;5427527;32;35160;-71
2023/07/19 10:07:49;;;;;;;;;;;;;;;32.35;36.10;99934.94;5425316;32;36908;-68
2023/07/19 10:11:00;;;;;;;;;;;;;;;32.51;36.31;99929.03;5417680;32;34710;-83
2023/07/19 10:14:02;;;;;;;;;;;;;;;33.44;35.31;99925.09;5441659;32;34560;-74
2023/07/19 10:17:17;;;;;;;;;;;;;;;33.38;36.11;99919.44;5434361;32;35447;-72
2023/07/19 10:20:35;;;;;;;;;;;;;;;33.86;34.58;99916.16;5439131;32;34569;-73
2023/07/19 10:23:37;;;;;;;;;;;;;;;35.54;30.14;99906.62;5440873;32;34776;-69
2023/07/19 10:26:39;;;;;;;;;;;;;;;35.83;29.78;99899.44;5421801;32;35361;-73
2023/07/19 10:29:42;;;;;;;;;;;;;;;35.50;29.42;99891.78;5439138;32;34235;-77
2023/07/19 10:32:49;;;;;;;;;;;;;;;35.91;28.99;99906.47;5426854;32;34143;-80
2023/07/19 10:35:52;;;;;;;;;;;;;;;36.86;27.18;99884.22;5428646;32;33341;-73
2023/07/19 10:38:54;;;;;;;;;;;;;;;36.10;28.49;99885.31;5440899;32;35464;-76
2023/07/19 10:41:59;;;;;;;;;;;;;;;35.00;28.58;99886.63;5431378;32;34165;-71
2023/07/19 10:45:01;;;;;;;;;;;;;;;34.73;30.60;99883.38;5411878;32;35462;-72
2023/07/19 10:48:03;;;;;;;;;;;;;;;35.72;29.21;99871.00;5415974;32;34101;-75
2023/07/19 10:51:07;;;;;;;;;;;;;;;36.60;27.52;99867.28;5429441;32;34029;-79
2023/07/19 10:54:10;;;;;;;;;;;;;;;35.09;30.02;99865.28;5429676;32;35062;-71
2023/07/19 10:57:12;;;;;;;;;;;;;;;35.58;27.76;99852.34;5421990;32;34071;-77
2023/07/19 11:00:14;;;;;;;;;;;;;;;35.97;27.97;99834.44;5429327;32;34325;-73
2023/07/19 11:03:22;;;;;;;;;;;;;;;36.04;28.10;99829.66;5425504;32;34115;-79
2023/07/19 11:06:25;;;;;;;;;;;;;;;34.51;30.50;99846.72;5433850;32;34337;-72
2023/07/19 11:09:27;;;;;;;;;;;;;;;36.67;28.10;99844.41;5432109;32;35793;-72
2023/07/19 11:12:30;;;;;;;;;;;;;;;38.39;26.00;99854.72;5434654;32;34478;-72
2023/07/19 11:15:32;;;;;;;;;;;;;;;37.89;25.68;99857.56;5430388;32;33944;-75
2023/07/19 11:18:40;;;;;;;;;;;;;;;38.43;25.21;99852.25;5435589;32;34211;-73
2023/07/19 11:21:44;;;;;;;;;;;;;;;35.84;28.02;99862.81;5424212;32;34091;-70
2023/07/19 11:24:48;;;;;;;;;;;;;;;36.73;27.68;99844.25;5422593;32;34417;-69
2023/07/19 11:27:50;;;;;;;;;;;;;;;36.10;27.02;99838.81;5422552;32;32998;-72
2023/07/19 11:30:53;;;;;;;;;;;;;;;37.95;24.33;99834.59;5430009;32;34242;-83
2023/07/19 11:34:04;;;;;;;;;;;;;;;37.74;24.32;99836.16;5427166;32;34538;-82
2023/07/19 11:37:06;;;;;;;;;;;;;;;38.82;23.28;99830.22;5419001;32;35686;-80
2023/07/19 11:40:13;;;;;;;;;;;;;;;41.98;20.12;99831.59;5407478;32;35442;-80
2023/07/19 11:43:15;;;;;;;;;;;;;;;39.77;21.96;99839.59;5439674;32;32924;-71
2023/07/19 11:46:17;;;;;;;;;;;;;;;38.71;22.59;99830.12;5430587;32;34313;-79
2023/07/19 11:49:19;;;;;;;;;;;;;;;39.92;21.26;99836.09;5432683;32;36321;-71
2023/07/19 11:52:24;;;;;;;;;;;;;;;40.27;21.30;99828.06;5430056;32;34168;-75
2023/07/19 11:55:26;;;;;;;;;;;;;;;37.96;24.35;99824.47;5434226;32;35265;-69
2023/07/19 11:58:29;;;;;;;;;;;;;;;39.39;22.60;99829.66;5436402;32;34194;-74
2023/07/19 12:01:46;;;;;;;;;;;;;;;39.66;22.33;99832.38;5433001;32;34600;-75
2023/07/19 12:04:49;;;;;;;;;;;;;;;37.74;24.83;99816.16;5428103;32;34556;-76
2023/07/19 12:07:51;;;;;;;;;;;;;;;37.60;23.49;99821.97;5422910;32;34470;-74
2023/07/19 12:10:54;;;;;;;;;;;;;;;37.35;23.97;99813.34;5437824;32;35567;-73
2023/07/19 12:13:57;;;;;;;;;;;;;;;36.56;25.48;99816.81;5436160;32;35351;-69
2023/07/19 12:17:00;;;;;;;;;;;;;;;36.25;25.90;99798.09;5434192;32;36170;-77
2023/07/19 12:20:06;;;;;;;;;;;;;;;38.59;22.80;99796.47;5424753;32;35229;-77
2023/07/19 12:23:08;;;;;;;;;;;;;;;37.65;23.67;99789.16;5418005;32;34140;-76
2023/07/19 12:26:11;;;;;;;;;;;;;;;36.94;24.93;99792.63;5409887;32;34391;-69
2023/07/19 12:29:13;;;;;;;;;;;;;;;37.55;23.55;99780.81;5431783;32;35291;-85
2023/07/19 12:32:15;;;;;;;;;;;;;;;36.59;25.27;99775.28;5427357;32;34384;-70
2023/07/19 12:35:19;;;;;;;;;;;;;;;35.48;26.52;99766.31;5425908;32;34266;-72
2023/07/19 12:38:21;;;;;;;;;;;;;;;34.63;27.07;99765.75;5422910;32;34447;-79
2023/07/19 12:41:25;;;;;;;;;;;;;;;34.23;27.44;99758.09;5438185;32;35049;-76
2023/07/19 12:44:27;;;;;;;;;;;;;;;33.93;28.26;99747.94;5428581;32;34426;-69
2023/07/19 12:47:29;;;;;;;;;;;;;;;35.00;26.34;99753.66;5436453;32;34797;-75
2023/07/19 12:50:32;;;;;;;;;;;;;;;34.73;26.30;99747.75;5418721;32;34305;-71
2023/07/19 12:53:34;;;;;;;;;;;;;;;33.92;27.24;99729.94;5428928;32;35054;-83
2023/07/19 12:56:40;;;;;;;;;;;;;;;33.97;26.91;99734.72;5437009;32;32495;-67
2023/07/19 12:59:44;;;;;;;;;;;;;;;33.98;25.85;99732.81;5422162;32;34639;-76
2023/07/19 13:02:46;;;;;;;;;;;;;;;34.42;24.81;99737.91;5433750;32;34999;-75
2023/07/19 13:05:49;;;;;;;;;;;;;;;35.08;24.37;99732.53;5419062;32;35623;-71
2023/07/19 13:08:51;;;;;;;;;;;;;;;34.91;24.73;99725.03;5420708;32;34620;-73
2023/07/19 13:11:52;;;;;;;;;;;;;;;34.42;25.36;99732.47;5433875;32;34412;-72
2023/07/19 13:14:55;;;;;;;;;;;;;;;34.62;23.94;99725.88;5417578;32;35860;-72
2023/07/19 13:17:57;;;;;;;;;;;;;;;34.26;24.29;99716.69;5419897;32;34411;-78
2023/07/19 13:20:59;;;;;;;;;;;;;;;35.32;23.34;99692.41;5434007;32;34261;-77
2023/07/19 13:24:01;;;;;;;;;;;;;;;34.94;22.47;99704.63;5421611;32;33513;-70
2023/07/19 13:27:04;;;;;;;;;;;;;;;35.34;21.83;99691.09;5430320;32;34187;-74
2023/07/19 13:30:07;;;;;;;;;;;;;;;35.49;21.61;99685.19;5428561;32;36633;-73
2023/07/19 13:33:10;;;;;;;;;;;;;;;35.61;21.96;99688.72;5431282;32;35498;-72
2023/07/19 13:36:13;;;;;;;;;;;;;;;35.28;22.60;99675.66;5430191;32;34405;-69
2023/07/19 13:39:18;;;;;;;;;;;;;;;35.09;23.29;99657.75;5414138;32;35466;-69
2023/07/19 13:42:20;;;;;;;;;;;;;;;34.74;24.32;99658.53;5425337;32;34149;-72
2023/07/19 13:45:22;;;;;;;;;;;;;;;35.54;23.36;99641.56;5418705;32;34338;-73
2023/07/19 13:48:24;;;;;;;;;;;;;;;34.19;25.28;99643.16;5409624;32;35607;-70
2023/07/19 13:51:26;;;;;;;;;;;;;;;35.36;24.30;99626.16;5423602;32;34482;-72
2023/07/19 13:54:28;;;;;;;;;;;;;;;35.10;24.74;99618.44;5407964;32;37127;-81
2023/07/19 13:57:32;;;;;;;;;;;;;;;35.23;24.58;99605.37;5333999;32;34228;-83
2023/07/19 14:00:34;;;;;;;;;;;;;;;34.66;24.24;99599.66;5341028;32;33888;-69
2023/07/19 14:03:37;;;;;;;;;;;;;;;35.24;24.12;99620.69;5345273;32;34171;-81
2023/07/19 14:06:39;;;;;;;;;;;;;;;35.05;24.52;99619.19;5346249;32;34055;-82
2023/07/19 14:09:41;;;;;;;;;;;;;;;34.67;25.06;99628.63;5349429;32;35477;-82
2023/07/19 14:12:43;;;;;;;;;;;;;;;34.42;25.81;99633.44;5345603;32;34793;-68
2023/07/19 14:15:46;;;;;;;;;;;;;;;34.13;25.45;99619.56;5332248;32;35618;-69
2023/07/19 14:18:49;;;;;;;;;;;;;;;34.40;24.71;99621.91;5334173;32;35533;-74
2023/07/19 14:21:51;;;;;;;;;;;;;;;35.47;23.25;99610.81;5336120;32;34081;-71
2023/07/19 14:24:53;;;;;;;;;;;;;;;35.15;23.74;99611.19;5332721;32;36696;-76
2023/07/19 14:27:56;;;;;;;;;;;;;;;34.47;23.72;99628.94;5342876;32;35440;-72
2023/07/19 14:30:59;;;;;;;;;;;;;;;34.86;23.35;99610.25;5339685;32;34345;-73
2023/07/19 14:34:04;;;;;;;;;;;;;;;34.11;24.21;99618.97;5338402;32;36186;-78
2023/07/19 14:37:10;;;;;;;;;;;;;;;35.19;22.82;99641.59;5380732;32;34110;-71
2023/07/19 14:40:13;;;;;;;;;;;;;;;34.31;24.16;99662.28;5436942;32;34805;-71
2023/07/19 14:43:15;;;;;;;;;;;;;;;34.51;24.18;99650.28;5438640;32;34237;-81
2023/07/19 14:46:17;;;;;;;;;;;;;;;34.65;24.08;99646.28;5423918;32;35016;-81
2023/07/19 14:49:20;;;;;;;;;;;;;;;34.68;24.04;99648.53;5430874;32;35309;-72
2023/07/19 14:52:22;;;;;;;;;;;;;;;34.53;24.15;99657.19;5439506;32;37551;-79
2023/07/19 14:55:26;;;;;;;;;;;;;;;33.73;24.60;99665.56;5442318;32;34954;-71
2023/07/19 14:58:28;;;;;;;;;;;;;;;33.91;24.54;99683.81;5429946;32;35318;-72
2023/07/19 15:01:31;;;;;;;;;;;;;;;34.34;23.87;99677.38;5431504;32;35221;-81
2023/07/19 15:04:33;;;;;;;;;;;;;;;33.97;24.40;99666.56;5445148;32;34346;-71
2023/07/19 15:07:35;;;;;;;;;;;;;;;34.86;23.60;99653.91;5432568;32;35716;-72
2023/07/19 15:10:37;;;;;;;;;;;;;;;34.54;24.17;99661.56;5446363;32;34362;-81
2023/07/19 15:13:40;;;;;;;;;;;;;;;33.90;25.22;99666.63;5429301;32;34990;-71
2023/07/19 15:16:42;;;;;;;;;;;;;;;33.51;25.69;99648.84;5442268;32;35617;-80
2023/07/19 15:19:44;;;;;;;;;;;;;;;33.92;25.42;99645.44;5420283;32;35655;-80
2023/07/19 15:22:46;;;;;;;;;;;;;;;33.84;25.68;99656.63;5447643;32;35063;-80
2023/07/19 15:25:48;;;;;;;;;;;;;;;33.23;26.53;99649.31;5442553;32;34714;-72
2023/07/19 15:28:51;;;;;;;;;;;;;;;33.89;25.86;99648.59;5433122;32;35076;-80
2023/07/19 15:31:54;;;;;;;;;;;;;;;34.38;25.06;99651.28;5432405;32;34174;-72
2023/07/19 15:34:56;;;;;;;;;;;;;;;33.40;26.25;99645.00;5430465;32;34352;-73
2023/07/19 15:37:58;;;;;;;;;;;;;;;32.30;27.99;99657.37;5443878;32;35460;-74
2023/07/19 15:41:00;;;;;;;;;;;;;;;32.41;27.98;99655.88;5446401;32;34659;-83
2023/07/19 15:44:02;;;;;;;;;;;;;;;32.87;27.49;99661.00;5435142;32;35002;-72
2023/07/19 15:47:17;;;;;;;;;;;;;;;32.95;27.49;99659.88;5445849;32;35401;-72
2023/07/19 15:50:20;;;;;;;;;;;;;;;33.37;27.15;99645.44;5432303;32;34723;-71